Galva, IL (61434)

4:09 PM CST on February 10, 2016 (GMT -0600)
Kewanee Airport | | Change Station
CLOSE
Current Station
Personal Weather Station
Location: Kewanee, IL
Elevation: 858 ft
Nearby Weather Stations

Elev 858 ft 41.21 °N, 89.96 °W | Updated 9 minutes ago

Mostly Cloudy
Mostly Cloudy
18.1 °F
Feels Like 8 °F
N
8.0
Wind Variable Wind from WNW
Gusts 12.0 mph

Today
High -- | Low -- °F
--% Chance of Precip.
Yesterday
High -- | Low -- °F
Precip. -- in
Pressure 30.08 in
Visibility 10.0 miles
Clouds Scattered Clouds 5000 ft
Overcast 10000 ft
Windchill 8 °F
Dew Point 8 °F
Humidity 64%
Rainfall 0.00 in
Snow Depth Not available.
7:01 AM 5:27 PM
Waxing Crescent, 7% visible
METAR KGBG 102155Z AUTO 28006KT 10SM SCT050 OVC100 M08/M14 A3008 RMK AO2 T10761144
Pressure 30.08 in
Visibility 10.0 miles
Clouds Scattered Clouds 5000 ft
Overcast 10000 ft
Windchill 8 °F
Dew Point 8 °F
Humidity 64%
Rainfall 0.00 in
Snow Depth Not available.
7:01 AM 5:27 PM
Waxing Crescent, 7% visible
METAR KGBG 102155Z AUTO 28006KT 10SM SCT050 OVC100 M08/M14 A3008 RMK AO2 T10761144

10-Day Weather Forecast

Almanac

Astronomy

Feb. 10, 2016 Rise Set
Actual Time
Civil Twilight
Nautical Twilight
Astronomical Twilight
Moon
Length of Visible Light
Length of Day
Tomorrow will be .
, % of the Moon is Illuminated

Today's Extremes

State Highs State Lows

Community

WunderPhotos

Upload Photos

1,891,959 photos uploaded!

WunderBlog® & News

Nearby

Air Quality

  Air Quality AQ Index Pollutant
Not available.

Snow Depth

Station Depth Elevation

Earthquake Activity

City Distance Mag. Time & Date
Minimum magnitude displayed is 2.5.

Coastal Water Temperatures

Place Temperature

Stations

Nearby Weather Stations

Station Location Temp. Windchill Dew Point Humidity Wind Precip. Elev Updated Type
                   

Watches & Warnings

There are currently no watches in effect.